createdAt,value
2018-10-02T00:00:18.787Z,7.29
2018-10-02T00:02:48.302Z,7.28
2018-10-02T00:05:17.913Z,7.36
2018-10-02T00:07:47.348Z,7.28
2018-10-02T00:10:16.799Z,7.23
2018-10-02T00:12:51.471Z,7.11
2018-10-02T00:15:20.995Z,7.08
2018-10-02T00:17:50.519Z,6.97
2018-10-02T00:20:19.979Z,7.01
2018-10-02T00:22:49.610Z,6.94
2018-10-02T00:25:18.960Z,6.89
2018-10-02T00:27:50.188Z,7.07
2018-10-02T00:30:19.694Z,7.18
2018-10-02T00:32:54.113Z,7.24
2018-10-02T00:35:23.499Z,7.31
2018-10-02T00:37:52.960Z,7.44
2018-10-02T00:40:23.817Z,7.35
2018-10-02T00:42:53.223Z,7.44
2018-10-02T00:45:22.589Z,7.34
2018-10-02T00:47:51.942Z,7.25
2018-10-02T00:50:21.785Z,7.33
2018-10-02T00:52:57.791Z,7.29
2018-10-02T00:55:27.144Z,7.26
2018-10-02T00:57:56.546Z,7.29
2018-10-02T01:00:26.165Z,7.05
2018-10-02T01:02:56.875Z,6.85
2018-10-02T01:05:26.324Z,6.69
2018-10-02T01:07:55.677Z,6.62
2018-10-02T01:10:25.229Z,6.48
2018-10-02T01:12:54.611Z,6.30
2018-10-02T01:15:24.019Z,6.08
2018-10-02T01:17:57.588Z,5.96
2018-10-02T01:20:27.323Z,5.80
2018-10-02T01:22:56.698Z,5.68
2018-10-02T01:25:26.102Z,5.53
2018-10-02T01:27:55.442Z,5.32
2018-10-02T01:30:24.877Z,5.20
2018-10-02T01:32:54.262Z,5.08
2018-10-02T01:35:23.639Z,5.16
2018-10-02T01:37:53.021Z,5.24
2018-10-02T01:40:22.469Z,5.43
2018-10-02T01:42:51.812Z,5.64
2018-10-02T01:45:21.138Z,5.77
2018-10-02T01:47:50.581Z,5.89
2018-10-02T01:50:19.890Z,6.12
2018-10-02T01:52:49.209Z,6.27
2018-10-02T01:55:19.705Z,6.16
2018-10-02T01:57:49.118Z,6.14
2018-10-02T02:03:03.749Z,6.07
2018-10-02T02:05:33.136Z,6.05
2018-10-02T02:08:02.481Z,6.05
2018-10-02T02:10:31.801Z,6.07
2018-10-02T02:13:01.117Z,6.10
2018-10-02T02:15:31.166Z,6.25
2018-10-02T02:18:00.466Z,6.16
2018-10-02T02:20:29.830Z,6.11
2018-10-02T02:22:59.153Z,5.95
2018-10-02T02:25:29.872Z,5.82
2018-10-02T02:27:59.231Z,5.96
2018-10-02T02:30:28.660Z,6.08
2018-10-02T02:32:57.996Z,5.99
2018-10-02T02:35:27.361Z,5.97
2018-10-02T02:37:56.704Z,5.89
2018-10-02T02:40:26.601Z,5.67
2018-10-02T02:42:55.940Z,5.40
2018-10-02T02:45:25.280Z,5.12
2018-10-02T02:47:59.841Z,4.80
2018-10-02T02:50:34.973Z,4.61
2018-10-02T02:53:07.016Z,4.40
2018-10-02T02:55:36.674Z,4.28
2018-10-02T02:58:06.023Z,4.18
2018-10-02T03:00:35.377Z,4.19
2018-10-02T03:03:04.718Z,4.09
2018-10-02T03:05:34.040Z,3.92
2018-10-02T03:08:03.348Z,3.91
2018-10-02T03:10:32.681Z,3.79
2018-10-02T03:13:02.024Z,3.77
2018-10-02T03:15:31.342Z,3.74
2018-10-02T03:18:00.754Z,3.75
2018-10-02T03:20:30.108Z,3.72
2018-10-02T03:22:59.451Z,3.71
2018-10-02T03:25:28.747Z,3.65
2018-10-02T03:27:58.063Z,3.53
2018-10-02T03:30:27.397Z,3.56
2018-10-02T03:32:56.744Z,3.56
2018-10-02T03:35:26.106Z,3.71
2018-10-02T03:37:55.578Z,3.77
2018-10-02T03:40:24.776Z,3.84
2018-10-02T03:42:54.083Z,3.94
2018-10-02T03:45:23.379Z,3.87
2018-10-02T03:47:52.704Z,3.85
2018-10-02T03:50:21.966Z,3.80
2018-10-02T03:52:51.287Z,3.65
2018-10-02T03:55:20.583Z,3.63
2018-10-02T03:57:49.926Z,3.55
2018-10-02T04:00:19.394Z,3.55
2018-10-02T04:02:48.717Z,3.41
2018-10-02T04:05:18.009Z,3.45
2018-10-02T04:07:47.335Z,3.35
2018-10-02T04:10:16.645Z,3.20
2018-10-02T04:12:45.983Z,3.24
2018-10-02T04:15:15.303Z,3.26
2018-10-02T04:17:44.616Z,3.25
2018-10-02T04:20:14.014Z,3.22
2018-10-02T04:22:43.308Z,3.22
2018-10-02T04:25:12.596Z,3.19
2018-10-02T04:27:41.937Z,3.13
2018-10-02T04:30:11.204Z,3.07
2018-10-02T04:32:40.515Z,3.04
2018-10-02T04:35:09.823Z,2.99
2018-10-02T04:37:39.561Z,3.04
2018-10-02T04:40:08.878Z,3.08
2018-10-02T04:42:38.230Z,2.99
2018-10-02T04:45:07.718Z,2.95
2018-10-02T04:47:37.009Z,2.87
2018-10-02T04:50:06.369Z,2.92
2018-10-02T04:52:35.675Z,2.85
2018-10-02T04:55:05.050Z,2.80
2018-10-02T04:57:34.322Z,2.89
2018-10-02T05:00:03.648Z,2.71
2018-10-02T05:02:32.935Z,2.67
2018-10-02T05:05:02.228Z,2.67
2018-10-02T05:07:31.550Z,2.68
2018-10-02T05:10:00.915Z,2.89
2018-10-02T05:12:30.241Z,2.65
2018-10-02T05:14:59.521Z,2.58
2018-10-02T05:17:28.821Z,2.47
2018-10-02T05:19:58.104Z,2.38
2018-10-02T05:22:27.431Z,2.34
2018-10-02T05:24:56.707Z,2.26
2018-10-02T05:27:26.083Z,2.28
2018-10-02T05:29:55.436Z,2.26
2018-10-02T05:32:24.753Z,2.20
2018-10-02T05:34:54.120Z,2.25
2018-10-02T05:37:23.367Z,2.32
2018-10-02T05:39:52.697Z,2.45
2018-10-02T05:42:22.151Z,2.56
2018-10-02T05:44:51.540Z,2.74
2018-10-02T05:47:20.891Z,3.00
2018-10-02T05:49:50.259Z,3.23
2018-10-02T05:52:19.631Z,3.44
2018-10-02T05:54:48.976Z,3.66
2018-10-02T05:57:18.331Z,3.80
2018-10-02T05:59:47.745Z,3.94
2018-10-02T06:02:17.287Z,4.13
2018-10-02T06:04:46.644Z,4.51
2018-10-02T06:07:15.979Z,4.79
2018-10-02T06:09:45.352Z,4.86
2018-10-02T06:12:14.779Z,4.76
2018-10-02T06:14:44.101Z,4.69
2018-10-02T06:17:13.411Z,4.76
2018-10-02T06:19:42.748Z,4.92
2018-10-02T06:22:12.177Z,5.02
2018-10-02T06:24:41.785Z,4.96
2018-10-02T06:27:11.431Z,5.05
2018-10-02T06:29:40.776Z,5.25
2018-10-02T06:32:10.095Z,5.57
2018-10-02T06:34:39.423Z,5.77
2018-10-02T06:37:08.731Z,5.98
2018-10-02T06:39:38.096Z,6.25
2018-10-02T06:42:07.412Z,6.33
2018-10-02T06:44:36.786Z,6.70
2018-10-02T06:47:06.342Z,7.16
2018-10-02T06:49:35.646Z,7.72
2018-10-02T06:52:05.045Z,7.87
2018-10-02T06:54:34.215Z,8.19
2018-10-02T06:57:03.556Z,8.27
2018-10-02T06:59:32.855Z,8.34
2018-10-02T07:02:02.143Z,8.29
2018-10-02T07:04:31.436Z,8.43
2018-10-02T07:07:00.803Z,8.76
2018-10-02T07:09:30.104Z,8.80
2018-10-02T07:11:59.418Z,9.05
2018-10-02T07:14:28.769Z,9.38
2018-10-02T07:16:58.039Z,9.07
2018-10-02T07:19:27.344Z,9.44
2018-10-02T07:21:56.742Z,9.73
2018-10-02T07:24:26.032Z,9.83
2018-10-02T07:26:55.621Z,9.34
2018-10-02T07:29:24.829Z,9.07
2018-10-02T07:31:54.120Z,9.54
2018-10-02T07:34:23.473Z,10.10
2018-10-02T07:36:52.813Z,10.12
2018-10-02T07:39:22.269Z,9.32
2018-10-02T07:41:51.583Z,9.96
2018-10-02T07:44:20.876Z,10.88
2018-10-02T07:46:50.165Z,11.29
2018-10-02T07:49:19.627Z,11.89
2018-10-02T07:51:48.939Z,11.77
2018-10-02T07:54:18.258Z,11.45
2018-10-02T07:56:47.641Z,10.91
2018-10-02T07:59:17.153Z,10.13
2018-10-02T08:01:46.499Z,10.05
2018-10-02T08:04:15.927Z,9.71
2018-10-02T08:06:45.203Z,9.54
2018-10-02T08:09:14.487Z,9.10
2018-10-02T08:11:43.944Z,9.46
2018-10-02T08:14:13.231Z,9.67
2018-10-02T08:16:42.532Z,9.58
2018-10-02T08:19:11.832Z,9.41
2018-10-02T08:21:41.128Z,9.61
2018-10-02T08:24:10.418Z,9.80
2018-10-02T08:26:39.754Z,10.35
2018-10-02T08:29:09.149Z,10.53
2018-10-02T08:31:38.461Z,10.78
2018-10-02T08:34:07.896Z,10.30
2018-10-02T08:36:37.320Z,11.55
2018-10-02T08:39:09.451Z,11.97
2018-10-02T08:41:39.017Z,12.54
2018-10-02T08:44:08.431Z,12.63
2018-10-02T08:46:37.743Z,13.06
2018-10-02T08:49:07.052Z,12.50
2018-10-02T08:51:36.756Z,13.06
2018-10-02T08:54:06.158Z,12.22
2018-10-02T08:56:35.394Z,11.42
2018-10-02T08:59:04.734Z,11.46
2018-10-02T09:01:34.094Z,12.03
2018-10-02T09:04:03.398Z,13.07
2018-10-02T09:06:32.862Z,13.26
2018-10-02T09:09:02.131Z,13.13
2018-10-02T09:11:31.464Z,13.57
2018-10-02T09:14:00.849Z,14.17
2018-10-02T09:16:30.246Z,13.87
2018-10-02T09:18:59.522Z,13.97
2018-10-02T09:21:28.837Z,13.85
2018-10-02T09:23:58.383Z,14.23
2018-10-02T09:26:27.615Z,13.93
2018-10-02T09:28:56.937Z,14.62
2018-10-02T09:31:31.496Z,14.02
2018-10-02T09:34:05.959Z,12.76
2018-10-02T09:36:40.544Z,13.41
2018-10-02T09:39:15.486Z,13.73
2018-10-02T09:41:50.226Z,14.16
2018-10-02T09:44:19.540Z,13.98
2018-10-02T09:46:48.888Z,13.57
2018-10-02T09:49:18.233Z,13.35
2018-10-02T09:51:47.617Z,12.53
2018-10-02T09:54:17.061Z,11.94
2018-10-02T09:56:46.678Z,11.44
2018-10-02T09:59:16.709Z,11.20
2018-10-02T10:01:51.260Z,11.74
2018-10-02T10:04:20.684Z,12.35
2018-10-02T10:06:49.964Z,11.74
2018-10-02T10:09:19.279Z,12.37
2018-10-02T10:11:48.651Z,13.84
2018-10-02T10:14:18.110Z,14.66
2018-10-02T10:16:47.489Z,14.53
2018-10-02T10:19:16.794Z,14.17
2018-10-02T10:21:47.120Z,13.95
2018-10-02T10:24:16.544Z,13.83
2018-10-02T10:26:45.909Z,13.74
2018-10-02T10:29:15.272Z,13.38
2018-10-02T10:31:44.655Z,13.38
2018-10-02T10:34:14.011Z,13.56
2018-10-02T10:36:43.354Z,13.29
2018-10-02T10:39:12.758Z,12.99
2018-10-02T10:41:42.082Z,12.56
2018-10-02T10:44:11.410Z,12.45
2018-10-02T10:46:40.844Z,12.12
2018-10-02T10:49:10.020Z,12.18
2018-10-02T10:51:39.447Z,12.37
2018-10-02T10:54:08.763Z,12.40
2018-10-02T10:56:38.063Z,12.31
2018-10-02T10:59:07.527Z,12.09
2018-10-02T11:01:36.760Z,11.76
2018-10-02T11:04:06.096Z,11.80
2018-10-02T11:06:35.457Z,12.03
2018-10-02T11:09:07.542Z,11.83
2018-10-02T11:11:36.865Z,11.47
2018-10-02T11:14:06.553Z,11.52
2018-10-02T11:16:35.898Z,11.57
2018-10-02T11:19:05.246Z,11.62
2018-10-02T11:21:34.584Z,12.02
2018-10-02T11:24:03.963Z,12.50
2018-10-02T11:26:33.221Z,12.96
2018-10-02T11:29:02.540Z,12.95
2018-10-02T11:31:31.897Z,12.56
2018-10-02T11:34:01.241Z,12.20
2018-10-02T11:36:30.586Z,12.13
2018-10-02T11:38:59.978Z,12.07
2018-10-02T11:41:29.345Z,11.86
2018-10-02T11:43:58.743Z,11.65
2018-10-02T11:46:28.046Z,11.85
2018-10-02T11:48:57.422Z,11.87
2018-10-02T11:51:26.822Z,11.96
2018-10-02T11:53:56.200Z,11.89
2018-10-02T11:56:25.605Z,11.63
2018-10-02T11:58:55.041Z,11.50
2018-10-02T12:01:24.500Z,11.59
2018-10-02T12:03:53.779Z,11.79
2018-10-02T12:06:23.162Z,11.85
2018-10-02T12:08:52.725Z,12.02
2018-10-02T12:11:22.056Z,11.98
2018-10-02T12:13:51.571Z,11.87
2018-10-02T12:16:20.893Z,11.72
2018-10-02T12:18:50.316Z,11.36
2018-10-02T12:21:19.656Z,11.14
2018-10-02T12:23:49.036Z,11.16
2018-10-02T12:26:18.447Z,11.28
2018-10-02T12:28:48.067Z,11.45
2018-10-02T12:31:17.397Z,11.18
2018-10-02T12:33:46.759Z,11.18
2018-10-02T12:36:16.118Z,11.02
2018-10-02T12:38:45.505Z,10.99
2018-10-02T12:41:14.807Z,11.03
2018-10-02T12:43:44.130Z,11.08
2018-10-02T12:46:13.520Z,11.38
2018-10-02T12:48:42.773Z,11.58
2018-10-02T12:51:12.192Z,11.80
2018-10-02T12:53:41.821Z,11.42
2018-10-02T12:56:11.185Z,11.56
2018-10-02T12:58:40.866Z,11.53
2018-10-02T13:01:10.390Z,11.48
2018-10-02T13:03:39.700Z,11.69
2018-10-02T13:06:09.026Z,11.81
2018-10-02T13:08:38.526Z,12.05
2018-10-02T13:11:07.897Z,12.48
2018-10-02T13:13:37.456Z,12.88
2018-10-02T13:16:06.856Z,12.72
2018-10-02T13:18:36.250Z,12.73
2018-10-02T13:21:05.615Z,12.72
2018-10-02T13:23:35.005Z,12.90
2018-10-02T13:26:04.423Z,12.96
2018-10-02T13:28:33.772Z,12.70
2018-10-02T13:31:03.119Z,12.38
2018-10-02T13:33:32.468Z,12.45
2018-10-02T13:36:01.852Z,12.25
2018-10-02T13:38:31.275Z,12.19
2018-10-02T13:41:00.603Z,12.18
2018-10-02T13:43:29.939Z,12.21
2018-10-02T13:45:59.246Z,12.09
2018-10-02T13:48:28.571Z,12.13
2018-10-02T13:50:57.988Z,12.16
2018-10-02T13:53:27.343Z,12.29
2018-10-02T13:55:56.668Z,12.35
2018-10-02T13:58:25.994Z,12.42
2018-10-02T14:00:55.364Z,12.42
2018-10-02T14:03:24.668Z,12.21
2018-10-02T14:05:54.042Z,12.05
2018-10-02T14:08:23.515Z,12.04
2018-10-02T14:10:53.036Z,12.09
2018-10-02T14:13:22.379Z,12.15
2018-10-02T14:15:51.757Z,12.16
2018-10-02T14:18:21.440Z,12.05
2018-10-02T14:20:50.765Z,11.97
2018-10-02T14:23:20.155Z,11.85
2018-10-02T14:25:49.504Z,11.86
2018-10-02T14:28:18.945Z,11.80
2018-10-02T14:30:48.287Z,11.79
2018-10-02T14:33:17.627Z,11.69
2018-10-02T14:35:46.973Z,11.71
2018-10-02T14:38:16.346Z,11.73
2018-10-02T14:40:45.668Z,11.49
2018-10-02T14:43:15.038Z,11.50
2018-10-02T14:45:44.336Z,11.46
2018-10-02T14:48:13.671Z,11.45
2018-10-02T14:50:43.001Z,11.38
2018-10-02T14:53:12.384Z,11.41
2018-10-02T14:55:41.728Z,11.53
2018-10-02T14:58:11.374Z,11.58
2018-10-02T15:00:43.821Z,11.58
2018-10-02T15:03:13.519Z,11.55
2018-10-02T15:05:43.481Z,11.53
2018-10-02T15:08:13.215Z,11.50
2018-10-02T15:10:43.509Z,11.54
2018-10-02T15:13:19.117Z,11.58
2018-10-02T15:15:48.416Z,11.53
2018-10-02T15:18:17.790Z,11.53
2018-10-02T15:20:47.202Z,11.60
2018-10-02T15:23:16.509Z,11.60
2018-10-02T15:25:45.873Z,11.45
2018-10-02T15:28:15.282Z,11.45
2018-10-02T15:30:44.596Z,11.38
2018-10-02T15:33:13.950Z,11.44
2018-10-02T15:35:43.341Z,11.51
2018-10-02T15:38:12.776Z,11.42
2018-10-02T15:40:42.668Z,11.22
2018-10-02T15:43:12.185Z,11.18
2018-10-02T15:45:41.540Z,11.20
2018-10-02T15:48:10.899Z,11.24
2018-10-02T15:50:42.600Z,11.34
2018-10-02T15:53:11.944Z,11.27
2018-10-02T15:55:41.320Z,11.45
2018-10-02T15:58:10.660Z,11.49
2018-10-02T16:00:40.038Z,11.48
2018-10-02T16:03:09.796Z,11.50
2018-10-02T16:05:39.127Z,11.52
2018-10-02T16:08:08.709Z,11.57
2018-10-02T16:10:38.086Z,11.49
2018-10-02T16:13:07.903Z,11.46
2018-10-02T16:15:37.290Z,11.54
2018-10-02T16:18:06.900Z,11.45
2018-10-02T16:20:36.210Z,11.48
2018-10-02T16:23:05.685Z,11.47
2018-10-02T16:25:35.119Z,11.42
2018-10-02T16:28:04.486Z,11.48
2018-10-02T16:30:33.849Z,11.47
2018-10-02T16:33:03.165Z,11.45
2018-10-02T16:35:32.534Z,11.48
2018-10-02T16:38:01.949Z,11.48
2018-10-02T16:40:31.358Z,11.49
2018-10-02T16:43:00.674Z,11.50
2018-10-02T16:45:30.025Z,11.49
2018-10-02T16:47:59.584Z,11.42
2018-10-02T16:50:28.974Z,11.41
2018-10-02T16:52:58.436Z,11.40
2018-10-02T16:55:28.095Z,11.47
2018-10-02T16:57:57.648Z,11.45
2018-10-02T17:00:27.444Z,11.43
2018-10-02T17:02:56.928Z,11.37
2018-10-02T17:05:26.812Z,11.43
2018-10-02T17:07:56.183Z,11.39
2018-10-02T17:10:25.755Z,11.38
2018-10-02T17:12:55.067Z,11.37
2018-10-02T17:15:24.425Z,11.39
2018-10-02T17:17:53.776Z,11.31
2018-10-02T17:20:23.254Z,11.35
2018-10-02T17:22:52.602Z,11.33
2018-10-02T17:25:22.131Z,11.26
2018-10-02T17:27:51.464Z,11.24
2018-10-02T17:30:20.822Z,11.29
2018-10-02T17:32:50.153Z,11.27
2018-10-02T17:35:19.512Z,11.30
2018-10-02T17:37:48.946Z,11.29
2018-10-02T17:40:18.385Z,11.31
2018-10-02T17:42:47.732Z,11.25
2018-10-02T17:45:17.142Z,11.27
2018-10-02T17:47:46.565Z,11.22
2018-10-02T17:50:50.615Z,11.21
2018-10-02T17:53:56.188Z,11.28
2018-10-02T17:56:25.656Z,11.22
2018-10-02T17:58:55.093Z,11.20
2018-10-02T18:01:24.631Z,11.20
2018-10-02T18:03:55.091Z,11.18
2018-10-02T18:06:24.498Z,11.18
2018-10-02T18:08:53.930Z,11.19
2018-10-02T18:11:23.362Z,11.19
2018-10-02T18:13:52.740Z,11.13
2018-10-02T18:16:22.320Z,11.22
2018-10-02T18:18:51.789Z,11.14
2018-10-02T18:21:21.561Z,11.24
2018-10-02T18:23:51.111Z,11.31
2018-10-02T18:26:20.506Z,11.31
2018-10-02T18:28:50.085Z,11.20
2018-10-02T18:31:20.083Z,11.17
2018-10-02T18:33:49.555Z,11.19
2018-10-02T18:36:19.391Z,11.20
2018-10-02T18:38:48.962Z,11.22
2018-10-02T18:41:18.293Z,11.27
2018-10-02T18:43:48.353Z,11.27
2018-10-02T18:46:21.486Z,11.22
2018-10-02T18:48:51.255Z,11.24
2018-10-02T18:51:20.811Z,11.22
2018-10-02T18:53:50.575Z,11.22
2018-10-02T18:56:20.408Z,11.25
2018-10-02T18:58:49.800Z,11.25
2018-10-02T19:01:19.711Z,11.23
2018-10-02T19:03:49.539Z,11.26
2018-10-02T19:06:19.137Z,11.21
2018-10-02T19:08:53.878Z,11.16
2018-10-02T19:11:30.557Z,11.14
2018-10-02T19:14:00.082Z,11.25
2018-10-02T19:16:31.664Z,11.19
2018-10-02T19:19:01.437Z,11.18
2018-10-02T19:21:31.039Z,11.20
2018-10-02T19:24:03.269Z,11.18
2018-10-02T19:30:01.702Z,11.21
2018-10-02T19:32:31.167Z,11.15
2018-10-02T19:35:00.644Z,11.13
2018-10-02T19:37:35.391Z,11.02
2018-10-02T19:40:04.767Z,11.03
2018-10-02T19:42:34.109Z,11.03
2018-10-02T19:45:10.107Z,10.97
2018-10-02T19:47:39.748Z,10.95
2018-10-02T19:50:09.312Z,10.96
2018-10-02T19:52:38.833Z,10.99
2018-10-02T19:55:08.226Z,10.89
2018-10-02T19:57:37.711Z,10.86
2018-10-02T20:00:07.927Z,10.71
2018-10-02T20:02:37.357Z,10.77
2018-10-02T20:05:06.765Z,10.71
2018-10-02T20:07:36.245Z,10.60
2018-10-02T20:10:05.713Z,10.72
2018-10-02T20:12:35.255Z,10.68
2018-10-02T20:15:04.781Z,10.74
2018-10-02T20:17:34.147Z,10.79
2018-10-02T20:20:03.646Z,10.74
2018-10-02T20:22:34.292Z,10.60
2018-10-02T21:18:54.691Z,12.29
2018-10-02T21:21:23.970Z,10.85
2018-10-02T21:23:53.273Z,10.62
2018-10-02T21:26:22.633Z,10.41
2018-10-02T21:28:52.013Z,10.39
2018-10-02T21:31:21.405Z,10.36
2018-10-02T21:33:50.718Z,10.39
2018-10-02T21:36:20.107Z,10.37
2018-10-02T21:38:49.737Z,10.36
2018-10-02T21:41:19.139Z,10.34
2018-10-02T21:43:48.637Z,10.35
2018-10-02T21:46:18.143Z,10.32
2018-10-02T21:48:47.465Z,10.31
2018-10-02T21:51:16.885Z,10.35
2018-10-02T21:53:46.285Z,10.33
2018-10-02T21:56:15.705Z,10.31
2018-10-02T21:58:45.114Z,10.29
2018-10-02T22:01:14.450Z,10.33
2018-10-02T22:03:43.763Z,10.32
2018-10-02T22:06:13.122Z,10.29
2018-10-02T22:08:42.442Z,10.24
2018-10-02T22:11:11.907Z,10.24
2018-10-02T22:13:41.284Z,10.18
2018-10-02T22:16:10.781Z,10.16
2018-10-02T22:18:40.248Z,10.19
2018-10-02T22:21:09.589Z,10.16
2018-10-02T22:23:38.955Z,10.19
2018-10-02T22:26:08.239Z,10.26
2018-10-02T22:28:37.534Z,10.19
2018-10-02T22:31:06.818Z,10.15
2018-10-02T22:33:36.186Z,10.24
2018-10-02T22:36:05.474Z,10.27
2018-10-02T22:38:34.792Z,10.21
2018-10-02T22:41:04.106Z,10.25
2018-10-02T22:43:33.472Z,10.27
2018-10-02T22:46:02.747Z,10.29
2018-10-02T22:48:32.136Z,10.25
2018-10-02T22:51:01.495Z,10.29
2018-10-02T22:53:30.778Z,10.28
2018-10-02T22:56:00.105Z,10.23
2018-10-02T22:58:29.545Z,10.28
2018-10-02T23:00:58.813Z,10.28
2018-10-02T23:03:28.102Z,10.24
2018-10-02T23:05:57.417Z,10.27
2018-10-02T23:08:26.737Z,10.27
2018-10-02T23:10:56.012Z,10.29
2018-10-02T23:13:25.295Z,10.32
2018-10-02T23:15:54.627Z,10.26
2018-10-02T23:18:23.942Z,10.26
2018-10-02T23:20:53.238Z,10.30
2018-10-02T23:23:22.516Z,10.30
2018-10-02T23:25:51.833Z,10.28
2018-10-02T23:28:21.143Z,10.25
2018-10-02T23:30:51.006Z,10.25
2018-10-02T23:33:20.379Z,10.25
2018-10-02T23:35:49.649Z,10.26
2018-10-02T23:38:18.964Z,10.26
2018-10-02T23:40:48.248Z,10.22
2018-10-02T23:43:17.567Z,10.24
2018-10-02T23:45:46.862Z,10.24
2018-10-02T23:48:16.152Z,10.25
2018-10-02T23:50:45.418Z,10.26
2018-10-02T23:53:14.684Z,10.23
2018-10-02T23:55:43.982Z,10.25
2018-10-02T23:58:13.254Z,10.23
